Temp: 12.6°C   Baro: 1022.3mb
  Wind: 0.0mph   Dir: NE (54°)
  Rain: 0.0mm (0.0mm/hr)
  Solar: 0W/m2  Hum: 82%

Historic data

Bath Spa Weather Station Historical Data
Daily Summary for August 03, 2021 Units:  Metric    English   Both
Daily Weekly Monthly Yearly Custom
  High: Low: Average:
Temperature: 22.3 °C 9.8 °C 15 °C
Dew Point: 14.8 °C 9.2 °C 11.9 °C
Humidity: 95% 53.2% 81%
Wind Speed: 10.6km/h 0km/h 2.4km/h
Wind Gust: 17.7km/h - -
Wind- - South
Pressure: 1014.4 hPa 1011.7 hPa -
Precipitation: 0 mm    
Historical Graphs
 
 
Tabular Data for August 03, 2021
Time Temperature Dew Point Pressure Wind Wind Speed Wind Gust Humidity Rainfall Rate (Hourly) solar
00:04 12.7 °C 11.8 °C 1014.1 hPa Calm   3.2 km/h 91% 0 mm 0 W/m2
00:09 12.7 °C 11.8 °C 1014.1 hPa ENE 0.3 km/h 1.6 km/h 91% 0 mm 0 W/m2
00:14 12.6 °C 11.7 °C 1014.1 hPa Calm     91% 0 mm 0 W/m2
00:19 12.5 °C 11.6 °C 1014.1 hPa Calm     91% 0 mm 0 W/m2
00:24 12.4 °C 11.5 °C 1014.1 hPa Calm     91% 0 mm 0 W/m2
00:29 12.3 °C 11.3 °C 1014.1 hPa Calm     91% 0 mm 0 W/m2
00:34 12.2 °C 11.3 °C 1014.1 hPa Calm     91% 0 mm 0 W/m2
00:38 12.1 °C 11.2 °C 1014.1 hPa Calm     91% 0 mm 0 W/m2
00:44 12.1 °C 11.2 °C 1014.1 hPa ENE 0.3 km/h 1.6 km/h 91% 0 mm 0 W/m2
00:49 11.9 °C 11 °C 1014.1 hPa Calm   1.6 km/h 91% 0 mm 0 W/m2
00:54 11.9 °C 11.1 °C 1014.1 hPa Calm     91.8% 0 mm 0 W/m2
00:59 11.8 °C 10.9 °C 1014.1 hPa Calm     91.4% 0 mm 0 W/m2
01:04 11.7 °C 10.8 °C 1014.1 hPa Calm     91% 0 mm 0 W/m2
01:09 11.7 °C 10.8 °C 1014.1 hPa Calm   1.6 km/h 91.6% 0 mm 0 W/m2
01:14 11.6 °C 10.8 °C 1014.1 hPa ENE 0.8 km/h 3.2 km/h 92% 0 mm 0 W/m2
01:19 11.4 °C 10.7 °C 1014.1 hPa Calm   1.6 km/h 92% 0 mm 0 W/m2
01:24 11.4 °C 10.6 °C 1014.1 hPa Calm     92% 0 mm 0 W/m2
01:29 11.3 °C 10.5 °C 1014.1 hPa Calm     92% 0 mm 0 W/m2
01:34 11.3 °C 10.5 °C 1014.1 hPa Calm     92% 0 mm 0 W/m2
01:39 11.2 °C 10.4 °C 1014.1 hPa Calm     92% 0 mm 0 W/m2
01:44 11.2 °C 10.4 °C 1014.1 hPa Calm     92% 0 mm 0 W/m2
01:49 11.2 °C 10.4 °C 1014.4 hPa ENE 0.8 km/h 3.2 km/h 92% 0 mm 0 W/m2
01:54 11.2 °C 10.4 °C 1014.1 hPa Calm   3.2 km/h 92% 0 mm 0 W/m2
01:59 11.2 °C 10.5 °C 1014.1 hPa Calm     92.4% 0 mm 0 W/m2
02:04 11.2 °C 10.3 °C 1014.1 hPa Calm     92% 0 mm 0 W/m2
02:09 11.1 °C 10.3 °C 1014.1 hPa Calm     92% 0 mm 0 W/m2
02:14 10.9 °C 10.2 °C 1014.1 hPa Calm     92.4% 0 mm 0 W/m2
02:19 10.8 °C 10.2 °C 1014.1 hPa Calm     93% 0 mm 0 W/m2
02:24 10.8 °C 10.1 °C 1014.1 hPa Calm     92.4% 0 mm 0 W/m2
02:29 10.7 °C 10.1 °C 1014.1 hPa Calm     93% 0 mm 0 W/m2
02:34 10.7 °C 10.1 °C 1014.1 hPa Calm     93% 0 mm 0 W/m2
02:39 10.7 °C 10.1 °C 1014.1 hPa Calm     93% 0 mm 0 W/m2
02:44 10.7 °C 10.1 °C 1014.1 hPa Calm     93% 0 mm 0 W/m2
02:49 10.6 °C 10 °C 1014.1 hPa Calm     93% 0 mm 0 W/m2
02:54 10.6 °C 10 °C 1014.1 hPa Calm     93% 0 mm 0 W/m2
02:59 10.6 °C 10 °C 1014.1 hPa Calm     93% 0 mm 0 W/m2
03:04 10.6 °C 10 °C 1014.1 hPa Calm     93% 0 mm 0 W/m2
03:09 10.5 °C 9.9 °C 1014.1 hPa Calm     93% 0 mm 0 W/m2
03:14 10.4 °C 9.8 °C 1014.1 hPa Calm     93% 0 mm 0 W/m2
03:19 10.4 °C 9.8 °C 1013.8 hPa Calm     93% 0 mm 0 W/m2
03:24 10.4 °C 9.8 °C 1013.8 hPa Calm     93% 0 mm 0 W/m2
03:29 10.2 °C 9.7 °C 1013.8 hPa Calm     93% 0 mm 0 W/m2
03:34 10.2 °C 9.6 °C 1013.8 hPa Calm     93% 0 mm 0 W/m2
03:39 10.2 °C 9.6 °C 1013.8 hPa Calm     93% 0 mm 0 W/m2
03:44 10.2 °C 9.6 °C 1013.4 hPa Calm     93% 0 mm 0 W/m2
03:49 10 °C 9.4 °C 1013.4 hPa Calm     93% 0 mm 0 W/m2
03:54 9.9 °C 9.3 °C 1013.4 hPa Calm     93% 0 mm 0 W/m2
03:59 9.8 °C 9.3 °C 1013.4 hPa Calm     93% 0 mm 0 W/m2
04:04 9.8 °C 9.2 °C 1013.4 hPa Calm     93% 0 mm 0 W/m2
04:09 9.9 °C 9.3 °C 1013.4 hPa Calm     93% 0 mm 0 W/m2
04:14 9.8 °C 9.3 °C 1013.4 hPa Calm     93.2% 0 mm 0 W/m2
04:19 9.9 °C 9.5 °C 1013.4 hPa Calm   3.2 km/h 94% 0 mm 0 W/m2
04:24 9.9 °C 9.5 °C 1013.4 hPa Calm   3.2 km/h 94% 0 mm 0 W/m2
04:29 9.9 °C 9.5 °C 1013.4 hPa Calm     94% 0 mm 0 W/m2
04:34 10.1 °C 9.7 °C 1013.4 hPa Calm     94% 0 mm 0 W/m2
04:39 10.2 °C 9.8 °C 1013.4 hPa Calm   1.6 km/h 94% 0 mm 0 W/m2
04:44 10.2 °C 9.8 °C 1013.4 hPa Calm   3.2 km/h 94% 0 mm 0 W/m2
04:49 10.1 °C 9.7 °C 1013.4 hPa Calm   3.2 km/h 94% 0 mm 0 W/m2
04:54 10.1 °C 9.7 °C 1013.4 hPa Calm     94% 0 mm 0 W/m2
04:59 10.1 °C 9.7 °C 1013.4 hPa Calm     94% 0 mm 0 W/m2
05:04 10.2 °C 9.8 °C 1013.4 hPa Calm     94% 0 mm 0 W/m2
05:09 10.3 °C 9.9 °C 1013.4 hPa Calm     94% 0 mm 0 W/m2
05:14 10.4 °C 10 °C 1013.4 hPa Calm     94% 0 mm 0 W/m2
05:19 10.4 °C 10 °C 1013.8 hPa Calm     94% 0 mm 0 W/m2
05:24 10.3 °C 9.9 °C 1013.8 hPa Calm     94% 0 mm 0 W/m2
05:29 10.3 °C 9.9 °C 1013.8 hPa Calm     94% 0 mm 0 W/m2
05:34 10.4 °C 10 °C 1013.8 hPa Calm     94% 0 mm 0 W/m2
05:39 10.4 °C 10.1 °C 1013.8 hPa Calm     94% 0 mm 0 W/m2
05:44 10.6 °C 10.2 °C 1013.8 hPa Calm     94% 0 mm 0 W/m2
05:49 10.7 °C 10.2 °C 1013.8 hPa Calm     94% 0 mm 5 W/m2
05:54 10.7 °C 10.3 °C 1013.8 hPa Calm     94% 0 mm 5 W/m2
05:59 10.7 °C 10.3 °C 1013.8 hPa Calm   1.6 km/h 94% 0 mm 9 W/m2
06:04 10.8 °C 10.4 °C 1013.8 hPa Calm   1.6 km/h 94% 0 mm 11 W/m2
06:09 10.8 °C 10.4 °C 1013.8 hPa Calm     94% 0 mm 14 W/m2
06:14 10.9 °C 10.5 °C 1013.8 hPa Calm     94% 0 mm 14 W/m2
06:19 10.9 °C 10.6 °C 1013.8 hPa Calm     94% 0 mm 16 W/m2
06:24 10.9 °C 10.6 °C 1013.8 hPa Calm     94% 0 mm 19 W/m2
06:29 11 °C 10.6 °C 1014.1 hPa Calm     94% 0 mm 30 W/m2
06:34 11.1 °C 10.7 °C 1014.1 hPa East 1.4 km/h 4.8 km/h 94% 0 mm 32 W/m2
06:39 11.1 °C 10.7 °C 1014.1 hPa East 2.4 km/h 6.4 km/h 94.2% 0 mm 39 W/m2
06:44 10.9 °C 10.6 °C 1014.1 hPa East 1.6 km/h 6.4 km/h 94.4% 0 mm 44 W/m2
06:49 10.9 °C 10.6 °C 1014.1 hPa East 0.6 km/h 4.8 km/h 94.8% 0 mm 44 W/m2
06:54 10.9 °C 10.6 °C 1014.1 hPa East 1 km/h 4.8 km/h 95% 0 mm 47 W/m2
06:59 10.9 °C 10.6 °C 1014.1 hPa East 0.8 km/h 4.8 km/h 95% 0 mm 47 W/m2
07:04 11 °C 10.7 °C 1014.1 hPa East 1 km/h 4.8 km/h 94.8% 0 mm 60 W/m2
07:09 10.9 °C 10.7 °C 1014.1 hPa East 1.8 km/h 6.4 km/h 94.8% 0 mm 58 W/m2
07:14 10.9 °C 10.7 °C 1014.1 hPa East 2.3 km/h 4.8 km/h 95% 0 mm 58 W/m2
07:19 10.9 °C 10.6 °C 1014.1 hPa Calm   4.8 km/h 95% 0 mm 65 W/m2
07:24 10.9 °C 10.6 °C 1014.1 hPa Calm   3.2 km/h 95% 0 mm 65 W/m2
07:29 10.8 °C 10.6 °C 1014.1 hPa East 0.8 km/h 3.2 km/h 95% 0 mm 69 W/m2
07:34 10.9 °C 10.6 °C 1014.1 hPa East 0.3 km/h 3.2 km/h 95% 0 mm 79 W/m2
07:39 11 °C 10.7 °C 1014.4 hPa East 0.6 km/h 1.6 km/h 95% 0 mm 79 W/m2
07:44 11 °C 10.7 °C 1014.4 hPa Calm   1.6 km/h 95% 0 mm 76 W/m2
07:49 11.1 °C 10.8 °C 1014.4 hPa East 0.3 km/h 1.6 km/h 95% 0 mm 83 W/m2
07:54 11.1 °C 10.8 °C 1014.4 hPa Calm   1.6 km/h 95% 0 mm 79 W/m2
07:59 11.2 °C 10.9 °C 1014.4 hPa Calm   1.6 km/h 95% 0 mm 77 W/m2
08:04 11.2 °C 10.9 °C 1014.4 hPa Calm     95% 0 mm 79 W/m2
08:09 11.3 °C 11 °C 1014.4 hPa Calm   1.6 km/h 95% 0 mm 83 W/m2
08:14 11.3 °C 11 °C 1014.4 hPa Calm     95% 0 mm 81 W/m2
08:19 11.4 °C 11.1 °C 1014.4 hPa Calm     95% 0 mm 100 W/m2
08:24 11.4 °C 11.1 °C 1014.1 hPa East 0.3 km/h 4.8 km/h 95% 0 mm 127 W/m2
08:29 11.5 °C 11.2 °C 1014.1 hPa East 1.3 km/h 4.8 km/h 95% 0 mm 128 W/m2
08:34 11.7 °C 11.3 °C 1014.1 hPa East 0.3 km/h 1.6 km/h 95% 0 mm 139 W/m2
08:39 11.7 °C 11.4 °C 1014.1 hPa Calm   3.2 km/h 95% 0 mm 230 W/m2
08:44 11.9 °C 11.6 °C 1014.1 hPa East 0.6 km/h 3.2 km/h 95% 0 mm 243 W/m2
08:49 12.1 °C 11.8 °C 1014.1 hPa Calm   3.2 km/h 95% 0 mm 192 W/m2
08:54 11.8 °C 11.6 °C 1014.1 hPa East 0.6 km/h 4.8 km/h 95% 0 mm 179 W/m2
08:59 11.8 °C 11.5 °C 1014.1 hPa East 0.3 km/h 3.2 km/h 95% 0 mm 181 W/m2
09:04 11.8 °C 11.4 °C 1014.1 hPa East 1.3 km/h 4.8 km/h 95% 0 mm 183 W/m2
09:09 11.8 °C 11.5 °C 1014.1 hPa East 1.4 km/h 3.2 km/h 95% 0 mm 197 W/m2
09:14 11.9 °C 11.6 °C 1014.1 hPa East 0.3 km/h 3.2 km/h 95% 0 mm 204 W/m2
09:19 12.2 °C 11.9 °C 1014.4 hPa East 1 km/h 8 km/h 95% 0 mm 199 W/m2
09:24 12.3 °C 12 °C 1014.4 hPa East 0.3 km/h 3.2 km/h 95% 0 mm 195 W/m2
09:29 12.2 °C 11.8 °C 1014.4 hPa East 2.6 km/h 8 km/h 95% 0 mm 193 W/m2
09:34 12.2 °C 11.8 °C 1014.4 hPa East 0.3 km/h 8 km/h 95% 0 mm 236 W/m2
09:39 12.2 °C 11.8 °C 1014.4 hPa East 5.5 km/h 9.7 km/h 95% 0 mm 267 W/m2
09:44 12.1 °C 11.8 °C 1014.4 hPa East 3.4 km/h 9.7 km/h 95% 0 mm 320 W/m2
09:49 12.3 °C 12.1 °C 1014.4 hPa Calm     95% 0 mm 348 W/m2
09:54 12.7 °C 12.3 °C 1014.4 hPa East 3.1 km/h 8 km/h 95% 0 mm 353 W/m2
09:59 12.6 °C 12.2 °C 1014.4 hPa East 0.3 km/h 4.8 km/h 94% 0 mm 343 W/m2
10:04 13 °C 12.6 °C 1014.4 hPa East 2.7 km/h 9.7 km/h 94% 0 mm 350 W/m2
10:09 13.3 °C 12.8 °C 1014.4 hPa East 1 km/h 8 km/h 94% 0 mm 287 W/m2
10:14 13.5 °C 13 °C 1014.4 hPa Calm   9.7 km/h 93.6% 0 mm 301 W/m2
10:19 13.7 °C 13.1 °C 1014.4 hPa Calm   4.8 km/h 93% 0 mm 285 W/m2
10:24 13.7 °C 13 °C 1014.4 hPa East 0.3 km/h 3.2 km/h 92.4% 0 mm 264 W/m2
10:29 13.7 °C 12.8 °C 1014.4 hPa East 0.6 km/h 4.8 km/h 91.8% 0 mm 255 W/m2
10:34 13.8 °C 12.8 °C 1014.4 hPa East 1.6 km/h 8 km/h 91% 0 mm 257 W/m2
10:39 14.2 °C 13.2 °C 1014.1 hPa East 1 km/h 8 km/h 91% 0 mm 255 W/m2
10:44 14.3 °C 13.3 °C 1014.1 hPa East 2.7 km/h 8 km/h 90.3% 0 mm 287 W/m2
10:49 14.4 °C 13.3 °C 1014.1 hPa East 1.3 km/h 9.7 km/h 90% 0 mm 343 W/m2
10:54 14.4 °C 12.9 °C 1014.1 hPa East 3.9 km/h 11.3 km/h 88.4% 0 mm 366 W/m2
10:59 14.3 °C 12.8 °C 1014.1 hPa East 2.1 km/h 8 km/h 88% 0 mm 350 W/m2
11:04 14.6 °C 13.1 °C 1014.1 hPa East 1 km/h 4.8 km/h 87.4% 0 mm 294 W/m2
11:09 14.7 °C 12.9 °C 1014.1 hPa East 4.5 km/h 11.3 km/h 86.4% 0 mm 336 W/m2
11:14 14.8 °C 12.9 °C 1014.1 hPa East 7.6 km/h 11.3 km/h 86% 0 mm 366 W/m2
11:19 14.6 °C 12.7 °C 1014.1 hPa East 2.9 km/h 9.7 km/h 85.6% 0 mm 357 W/m2
11:24 14.7 °C 12.9 °C 1014.1 hPa East 3.9 km/h 9.7 km/h 86% 0 mm 306 W/m2
11:29 15.2 °C 13.3 °C 1013.8 hPa East 4.5 km/h 11.3 km/h 85.8% 0 mm 323 W/m2
11:34 15.2 °C 13.1 °C 1013.8 hPa East 3.2 km/h 9.7 km/h 84.4% 0 mm 381 W/m2
11:39 15.3 °C 13.1 °C 1013.8 hPa East 4 km/h 9.7 km/h 84% 0 mm 381 W/m2
11:44 15.6 °C 13.3 °C 1013.8 hPa Calm   3.2 km/h 83.6% 0 mm 313 W/m2
11:49 15.8 °C 13.4 °C 1013.8 hPa East 2.6 km/h 11.3 km/h 83% 0 mm 301 W/m2
11:53 15.9 °C 13.4 °C 1013.8 hPa Calm   4.8 km/h 82.3% 0 mm 345 W/m2
11:59 15.9 °C 13.3 °C 1013.8 hPa Calm     82% 0 mm 367 W/m2
12:04 15.7 °C 12.9 °C 1013.8 hPa East 3.1 km/h 9.7 km/h 81.2% 0 mm 357 W/m2
12:09 15.7 °C 13.1 °C 1013.8 hPa East 3.9 km/h 11.3 km/h 81.8% 0 mm 454 W/m2
12:14 16 °C 13.3 °C 1013.4 hPa East 2.9 km/h 9.7 km/h 81.6% 0 mm 622 W/m2
12:19 16.3 °C 13.3 °C 1013.4 hPa East 1.9 km/h 8 km/h 80% 0 mm 1072 W/m2
12:24 17.1 °C 13.7 °C 1013.4 hPa East 4.5 km/h 11.3 km/h 78.2% 0 mm 1046 W/m2
12:29 16.7 °C 13.2 °C 1013.4 hPa East 5.1 km/h 11.3 km/h 77.6% 0 mm 1005 W/m2
12:34 17.2 °C 13.8 °C 1013.4 hPa East 1.6 km/h 6.4 km/h 77.8% 0 mm 872 W/m2
12:39 17.3 °C 13.6 °C 1013.4 hPa SSE 4.8 km/h 11.3 km/h 76% 0 mm 926 W/m2
12:44 17.3 °C 13.7 °C 1013.4 hPa SSE 2.1 km/h 6.4 km/h 76.6% 0 mm 879 W/m2
12:49 17.4 °C 13.5 °C 1013.4 hPa SSE 5.8 km/h 8 km/h 75.6% 0 mm 888 W/m2
12:54 17.2 °C 13.5 °C 1013.4 hPa SSE 7.1 km/h 12.9 km/h 76.8% 0 mm 893 W/m2
12:59 17.3 °C 13.7 °C 1013.4 hPa SSE 4.2 km/h 11.3 km/h 76.6% 0 mm 946 W/m2
13:04 18 °C 14.2 °C 1013.4 hPa SSE 1.6 km/h 9.7 km/h 75.8% 0 mm 916 W/m2
13:09 18.8 °C 14.4 °C 1013.4 hPa SSE 2.6 km/h 9.7 km/h 73.2% 0 mm 896 W/m2
13:14 18.3 °C 13.9 °C 1013.4 hPa SSE 3.9 km/h 8 km/h 73.2% 0 mm 921 W/m2
13:18 18.5 °C 14.2 °C 1013.4 hPa SSE 0.8 km/h 4.8 km/h 73.3% 0 mm 939 W/m2
13:24 18.8 °C 14.2 °C 1013.4 hPa SSE 0.6 km/h 4.8 km/h 72.4% 0 mm 904 W/m2
13:29 18.9 °C 14.1 °C 1013.1 hPa SSE 3.5 km/h 8 km/h 71.8% 0 mm 842 W/m2
13:34 18.3 °C 13.5 °C 1013.1 hPa SSE 1.9 km/h 8 km/h 71.6% 0 mm 879 W/m2
13:39 18.8 °C 13.8 °C 1013.1 hPa SSE 2.7 km/h 9.7 km/h 70.6% 0 mm 833 W/m2
13:44 19.2 °C 13.9 °C 1013.1 hPa SSE 2.4 km/h 6.4 km/h 69% 0 mm 847 W/m2
13:49 19.4 °C 13.8 °C 1013.1 hPa SSE 4.5 km/h 11.3 km/h 67.8% 0 mm 838 W/m2
13:54 19.6 °C 13.9 °C 1013.1 hPa SSE 4.3 km/h 9.7 km/h 67.6% 0 mm 840 W/m2
13:59 19.2 °C 13.3 °C 1013.1 hPa SSE 4.2 km/h 8 km/h 66.6% 0 mm 851 W/m2
14:04 19.8 °C 13.9 °C 1012.8 hPa SSE 5.6 km/h 12.9 km/h 67% 0 mm 849 W/m2
14:09 19.8 °C 13.5 °C 1012.8 hPa SSE 4.5 km/h 12.9 km/h 65% 0 mm 860 W/m2
14:14 19.9 °C 13.5 °C 1012.8 hPa SSE 4.3 km/h 11.3 km/h 64.4% 0 mm 926 W/m2
14:19 19.8 °C 13.6 °C 1012.8 hPa SSE 2.7 km/h 9.7 km/h 65.4% 0 mm 926 W/m2
14:24 20.3 °C 13.6 °C 1012.8 hPa SSE 2.6 km/h 6.4 km/h 63.4% 0 mm 332 W/m2
14:29 19.9 °C 13.3 °C 1012.8 hPa SSE 1.9 km/h 6.4 km/h 63.8% 0 mm 197 W/m2
14:34 19.9 °C 13.1 °C 1012.8 hPa SSE 0.3 km/h 3.2 km/h 62.5% 0 mm 856 W/m2
14:39 20.1 °C 12.6 °C 1012.8 hPa SSE 4.5 km/h 11.3 km/h 60.2% 0 mm 856 W/m2
14:44 20.3 °C 12.4 °C 1012.8 hPa SSE 5.1 km/h 11.3 km/h 59% 0 mm 851 W/m2
14:49 20.2 °C 11.8 °C 1012.8 hPa SSE 5.1 km/h 16.1 km/h 56.8% 0 mm 833 W/m2
14:54 19.9 °C 12.2 °C 1012.8 hPa SSE 7.7 km/h 14.5 km/h 58.8% 0 mm 816 W/m2
14:59 20.1 °C 11.8 °C 1012.8 hPa SSE 5.1 km/h 11.3 km/h 57.2% 0 mm 807 W/m2
15:04 20.3 °C 11.7 °C 1012.8 hPa SSE 6 km/h 9.7 km/h 56% 0 mm 807 W/m2
15:09 21.3 °C 12.7 °C 1012.8 hPa SSE 4.5 km/h 9.7 km/h 56% 0 mm 798 W/m2
15:14 21.9 °C 12.5 °C 1012.8 hPa SSE 2.6 km/h 8 km/h 53.4% 0 mm 773 W/m2
15:19 21 °C 12.1 °C 1012.8 hPa SSE 4.3 km/h 9.7 km/h 55% 0 mm 766 W/m2
15:24 21.1 °C 12.3 °C 1012.4 hPa SSE 3.9 km/h 9.7 km/h 55.6% 0 mm 759 W/m2
15:29 20.9 °C 12.2 °C 1012.4 hPa SSE 3.2 km/h 11.3 km/h 55.8% 0 mm 738 W/m2
15:34 20.9 °C 11.9 °C 1012.4 hPa SSE 4.3 km/h 8 km/h 54.6% 0 mm 726 W/m2
15:39 21.1 °C 12.3 °C 1012.4 hPa SSE 4.8 km/h 9.7 km/h 55.8% 0 mm 722 W/m2
15:44 21.6 °C 12.4 °C 1012.4 hPa SSE 1.8 km/h 6.4 km/h 54.2% 0 mm 715 W/m2
15:49 21.8 °C 12.3 °C 1012.4 hPa SSE 4.3 km/h 6.4 km/h 53.4% 0 mm 717 W/m2
15:54 21.8 °C 12.3 °C 1012.4 hPa SSE 3.2 km/h 8 km/h 53.2% 0 mm 700 W/m2
15:59 22.2 °C 12.7 °C 1012.4 hPa SSE 1.9 km/h 6.4 km/h 53.4% 0 mm 707 W/m2
16:04 22.3 °C 13.6 °C 1012.4 hPa SSE 6.4 km/h 11.3 km/h 56.2% 0 mm 722 W/m2
16:09 21.5 °C 14.1 °C 1012.4 hPa South 5.8 km/h 14.5 km/h 60.6% 0 mm 721 W/m2
16:14 21.2 °C 14.3 °C 1012.1 hPa WSW 10.3 km/h 17.7 km/h 62.8% 0 mm 717 W/m2
16:19 21.3 °C 14.5 °C 1012.1 hPa West 6.4 km/h 11.3 km/h 63.4% 0 mm 708 W/m2
16:24 21.3 °C 14.4 °C 1012.1 hPa WSW 9.2 km/h 14.5 km/h 63% 0 mm 664 W/m2
16:29 21.2 °C 14.3 °C 1012.4 hPa West 8 km/h 17.7 km/h 63% 0 mm 661 W/m2
16:34 21 °C 14.4 °C 1012.1 hPa West 9.7 km/h 17.7 km/h 64.2% 0 mm 649 W/m2
16:39 21.2 °C 14.8 °C 1012.1 hPa WNW 7.6 km/h 17.7 km/h 65% 0 mm 624 W/m2
16:44 21.2 °C 14.5 °C 1012.1 hPa West 10 km/h 14.5 km/h 63.6% 0 mm 633 W/m2
16:49 20.8 °C 14.2 °C 1012.1 hPa West 7.6 km/h 14.5 km/h 63.8% 0 mm 606 W/m2
16:54 20.9 °C 14.2 °C 1012.1 hPa WNW 7.9 km/h 16.1 km/h 63.2% 0 mm 589 W/m2
16:59 21 °C 14.4 °C 1012.1 hPa West 9 km/h 14.5 km/h 64.2% 0 mm 587 W/m2
17:04 20.9 °C 14.1 °C 1012.1 hPa WSW 8.4 km/h 16.1 km/h 63% 0 mm 582 W/m2
17:09 20.8 °C 14 °C 1012.1 hPa WSW 5.5 km/h 16.1 km/h 63.2% 0 mm 566 W/m2
17:14 20.9 °C 13.9 °C 1012.1 hPa West 9.2 km/h 16.1 km/h 62.2% 0 mm 547 W/m2
17:19 20.8 °C 13.7 °C 1012.1 hPa West 6.6 km/h 11.3 km/h 62% 0 mm 538 W/m2
17:24 20.9 °C 13.8 °C 1012.1 hPa West 6 km/h 9.7 km/h 61.6% 0 mm 526 W/m2
17:29 21.2 °C 13.9 °C 1012.1 hPa West 4.8 km/h 16.1 km/h 61.3% 0 mm 510 W/m2
17:34 21.1 °C 13.8 °C 1012.1 hPa WNW 6.9 km/h 16.1 km/h 61.4% 0 mm 490 W/m2
17:39 21.3 °C 13.8 °C 1012.1 hPa WNW 5 km/h 12.9 km/h 60.4% 0 mm 473 W/m2
17:44 21.2 °C 13.6 °C 1012.1 hPa WNW 6.6 km/h 14.5 km/h 60.2% 0 mm 457 W/m2
17:49 21.2 °C 13.7 °C 1012.1 hPa WNW 7.1 km/h 12.9 km/h 60.4% 0 mm 446 W/m2
17:54 20.9 °C 13.8 °C 1012.1 hPa WNW 10.6 km/h 16.1 km/h 61.6% 0 mm 436 W/m2
17:59 20.7 °C 13.6 °C 1012.1 hPa West 4.5 km/h 14.5 km/h 62% 0 mm 429 W/m2
18:04 20.8 °C 13.6 °C 1011.7 hPa West 7.1 km/h 17.7 km/h 61.2% 0 mm 392 W/m2
18:09 20.6 °C 13.3 °C 1011.7 hPa West 6.4 km/h 17.7 km/h 61.6% 0 mm 199 W/m2
18:14 20.3 °C 13.4 °C 1012.1 hPa West 7.9 km/h 16.1 km/h 62.8% 0 mm 174 W/m2
18:19 20 °C 13.4 °C 1012.1 hPa West 8.7 km/h 12.9 km/h 63.6% 0 mm 302 W/m2
18:24 19.9 °C 13.4 °C 1012.1 hPa West 8 km/h 11.3 km/h 64% 0 mm 258 W/m2
18:29 19.9 °C 13.5 °C 1012.1 hPa West 5.8 km/h 11.3 km/h 64.4% 0 mm 218 W/m2
18:34 19.8 °C 13.4 °C 1012.1 hPa West 9 km/h 11.3 km/h 64.7% 0 mm 118 W/m2
18:39 19.7 °C 13.3 °C 1012.1 hPa West 6.8 km/h 11.3 km/h 65% 0 mm 114 W/m2
18:44 19.6 °C 13.4 °C 1012.1 hPa West 7.2 km/h 11.3 km/h 65.4% 0 mm 125 W/m2
18:49 19.6 °C 13.2 °C 1012.1 hPa West 5.8 km/h 11.3 km/h 64.4% 0 mm 200 W/m2
18:54 19.7 °C 12.8 °C 1012.1 hPa WNW 9.7 km/h 12.9 km/h 62.6% 0 mm 188 W/m2
18:59 19.5 °C 12.3 °C 1012.1 hPa WNW 8 km/h 12.9 km/h 61.2% 0 mm 169 W/m2
19:04 19.5 °C 12.3 °C 1012.1 hPa WNW 6.3 km/h 11.3 km/h 61.4% 0 mm 132 W/m2
19:09 19.4 °C 11.9 °C 1012.1 hPa WNW 10 km/h 14.5 km/h 59.8% 0 mm 121 W/m2
19:14 19.3 °C 11.7 °C 1012.1 hPa WNW 5 km/h 11.3 km/h 59.2% 0 mm 100 W/m2
19:19 19.3 °C 11.7 °C 1012.1 hPa WNW 7.7 km/h 12.9 km/h 59.6% 0 mm 93 W/m2
19:24 19.2 °C 11.7 °C 1012.1 hPa WNW 5.8 km/h 9.7 km/h 60% 0 mm 79 W/m2
19:29 19 °C 11.8 °C 1012.4 hPa WNW 3.5 km/h 8 km/h 61.2% 0 mm 69 W/m2
19:34 18.8 °C 11.8 °C 1012.4 hPa WNW 4.8 km/h 9.7 km/h 62% 0 mm 63 W/m2
19:39 18.8 °C 12.1 °C 1012.4 hPa WNW 4 km/h 8 km/h 63% 0 mm 65 W/m2
19:44 18.7 °C 12 °C 1012.4 hPa WNW 3.9 km/h 8 km/h 63% 0 mm 65 W/m2
19:49 18.6 °C 11.9 °C 1012.4 hPa WNW 2.7 km/h 8 km/h 63% 0 mm 69 W/m2
19:54 18.6 °C 12.1 °C 1012.4 hPa WNW 3.2 km/h 6.4 km/h 63.8% 0 mm 67 W/m2
19:59 18.5 °C 11.9 °C 1012.4 hPa WNW 4.8 km/h 9.7 km/h 63.8% 0 mm 65 W/m2
20:04 18.4 °C 12.1 °C 1012.4 hPa WNW 2.6 km/h 9.7 km/h 64.6% 0 mm 54 W/m2
20:09 18.4 °C 12.3 °C 1012.4 hPa WNW 2.7 km/h 6.4 km/h 65.4% 0 mm 49 W/m2
20:14 18.2 °C 12.4 °C 1012.4 hPa WNW 6.4 km/h 11.3 km/h 67% 0 mm 40 W/m2
20:19 17.9 °C 12.6 °C 1012.4 hPa WNW 7.4 km/h 11.3 km/h 68.8% 0 mm 35 W/m2
20:24 17.8 °C 12.8 °C 1012.4 hPa WNW 4.8 km/h 9.7 km/h 70.5% 0 mm 30 W/m2
20:29 17.7 °C 13.1 °C 1012.8 hPa WNW 4 km/h 8 km/h 72% 0 mm 25 W/m2
20:34 17.5 °C 13.1 °C 1012.8 hPa WNW 7.7 km/h 12.9 km/h 72.8% 0 mm 19 W/m2
20:39 17.3 °C 13.1 °C 1012.8 hPa WNW 4.8 km/h 8 km/h 74% 0 mm 16 W/m2
20:44 17.2 °C 13.2 °C 1012.8 hPa WNW 2.6 km/h 8 km/h 74.8% 0 mm 11 W/m2
20:49 17.1 °C 13.2 °C 1012.8 hPa WNW 4.2 km/h 8 km/h 75.2% 0 mm 7 W/m2
20:54 16.9 °C 13.2 °C 1012.8 hPa WNW 6.3 km/h 11.3 km/h 76% 0 mm 0 W/m2
20:59 16.8 °C 13.1 °C 1012.8 hPa WNW 4.8 km/h 8 km/h 76.2% 0 mm 0 W/m2
21:04 16.7 °C 13.1 °C 1012.8 hPa WNW 3.7 km/h 6.4 km/h 77% 0 mm 0 W/m2
21:09 16.6 °C 13 °C 1012.8 hPa WNW 1.6 km/h 6.4 km/h 77% 0 mm 0 W/m2
21:13 16.6 °C 12.9 °C 1012.8 hPa WNW 2.4 km/h 6.4 km/h 77% 0 mm 0 W/m2
21:19 16.3 °C 12.8 °C 1012.8 hPa WNW 3.2 km/h 6.4 km/h 77% 0 mm 0 W/m2
21:24 16.3 °C 12.8 °C 1013.1 hPa WNW 1.3 km/h 4.8 km/h 78% 0 mm 0 W/m2
21:29 16.2 °C 12.8 °C 1013.1 hPa WNW 1.3 km/h 4.8 km/h 78% 0 mm 0 W/m2
21:34 16.1 °C 12.7 °C 1013.1 hPa WNW 1 km/h 4.8 km/h 78% 0 mm 0 W/m2
21:39 16.1 °C 12.7 °C 1013.1 hPa Calm     78% 0 mm 0 W/m2
21:44 15.9 °C 12.6 °C 1013.1 hPa WNW 0.6 km/h 4.8 km/h 78% 0 mm 0 W/m2
21:49 15.8 °C 12.6 °C 1013.1 hPa WNW 1.4 km/h 4.8 km/h 78% 0 mm 0 W/m2
21:54 15.7 °C 12.4 °C 1013.1 hPa Calm   3.2 km/h 78% 0 mm 0 W/m2
21:59 15.7 °C 12.4 °C 1013.1 hPa Calm     78% 0 mm 0 W/m2
22:04 15.6 °C 12.3 °C 1013.1 hPa WNW 0.6 km/h 3.2 km/h 78% 0 mm 0 W/m2
22:09 15.6 °C 12.4 °C 1013.1 hPa Calm   3.2 km/h 78.4% 0 mm 0 W/m2
22:14 15.4 °C 12.3 °C 1013.1 hPa Calm     79% 0 mm 0 W/m2
22:19 15.3 °C 12.2 °C 1013.1 hPa Calm     79% 0 mm 0 W/m2
22:24 15.2 °C 12.2 °C 1013.1 hPa Calm     79.6% 0 mm 0 W/m2
22:29 15.2 °C 12.2 °C 1013.4 hPa Calm     80% 0 mm 0 W/m2
22:34 15 °C 12.1 °C 1013.4 hPa Calm     80% 0 mm 0 W/m2
22:39 14.8 °C 12.2 °C 1013.4 hPa WNW 0.3 km/h 3.2 km/h 81% 0 mm 0 W/m2
22:44 14.7 °C 12 °C 1013.4 hPa Calm     81.2% 0 mm 0 W/m2
22:49 14.6 °C 12 °C 1013.4 hPa Calm     82% 0 mm 0 W/m2
22:54 14.4 °C 11.9 °C 1013.4 hPa Calm     82% 0 mm 0 W/m2
22:59 14.3 °C 11.8 °C 1013.4 hPa Calm     82.4% 0 mm 0 W/m2
23:04 14.2 °C 11.8 °C 1013.4 hPa Calm     83% 0 mm 0 W/m2
23:09 14 °C 11.7 °C 1013.4 hPa Calm     83.2% 0 mm 0 W/m2
23:14 13.9 °C 11.7 °C 1013.4 hPa Calm     84% 0 mm 0 W/m2
23:19 13.8 °C 11.7 °C 1013.4 hPa Calm     84% 0 mm 0 W/m2
23:24 13.8 °C 11.6 °C 1013.4 hPa Calm     84% 0 mm 0 W/m2
23:29 13.8 °C 11.8 °C 1013.4 hPa Calm     85% 0 mm 0 W/m2
23:34 13.8 °C 11.8 °C 1013.4 hPa Calm     85% 0 mm 0 W/m2
23:39 13.8 °C 11.8 °C 1013.4 hPa Calm     85% 0 mm 0 W/m2
23:44 13.8 °C 11.8 °C 1013.4 hPa Calm     85% 0 mm 0 W/m2
23:49 13.8 °C 11.8 °C 1013.4 hPa Calm     85% 0 mm 0 W/m2
23:54 13.8 °C 11.8 °C 1013.4 hPa Calm     85% 0 mm 0 W/m2
23:59 13.7 °C 11.7 °C 1013.4 hPa Calm     85% 0 mm 0 W/m2
Bath Spa Weather
Compliments of Weather Underground - 2 mb